Time;durP1;ratioP1;P1;durP2;ratioP2;P2;SDS_P1;SDS_P2;PMS_P1;PMS_P2;Temp;Humidity;BMP_temperature;BMP_pressure;BME280_temperature;BME280_humidity;BME280_pressure;Samples;Min_cycle;Max_cycle;Signal;HPM_P1;HPM_P2
2022/09/04 00:00:27;;;;;;;;;;;;;;;;;;5086213;28;19916;-55
2022/09/04 00:02:54;;;;;;;;;;;;;;;;;;5080042;28;20011;-54
2022/09/04 00:05:19;;;;;;;;;;;;;;;;;;5084024;28;19927;-52
2022/09/04 00:07:44;;;;;;;;;;;;;;;;;;5084499;28;19916;-56
2022/09/04 00:10:10;;;;;;;;;;;;;;;;;;5083776;28;19923;-54
2022/09/04 00:12:35;;;;;;;;;;;;;;;;;;5082736;28;19962;-55
2022/09/04 00:15:00;;;;;;;;;;;;;;;;;;5084002;28;20724;-54
2022/09/04 00:17:25;;;;;;;;;;;;;;;;;;5085173;28;19920;-54
2022/09/04 00:19:55;;;;;;;;;;;;;;;;;;5085892;28;19923;-55
2022/09/04 00:22:20;;;;;;;;;;;;;;;;;;5086156;28;19916;-54
2022/09/04 00:24:45;;;;;;;;;;;;;;;;;;5085779;28;19924;-55
2022/09/04 00:27:13;;;;;;;;;;;;;;;;;;5085287;28;19922;-55
2022/09/04 00:29:38;;;;;;;;;;;;;;;;;;5069031;28;19924;-55
2022/09/04 00:32:05;;;;;;;;;;;;;;;;;;5065295;28;20060;-56
2022/09/04 00:34:31;;;;;;;;;;;;;;;;;;5086435;28;19912;-54
2022/09/04 00:36:57;;;;;;;;;;;;;;;;;;5085014;28;19968;-57
2022/09/04 00:39:22;;;;;;;;;;;;;;;;;;5084873;28;19959;-52
2022/09/04 00:41:47;;;;;;;;;;;;;;;;;;5085662;28;19966;-56
2022/09/04 00:44:13;;;;;;;;;;;;;;;;;;5085364;28;19919;-55
2022/09/04 00:46:38;;;;;;;;;;;;;;;;;;5073073;28;19955;-54
2022/09/04 00:49:03;;;;;;;;;;;;;;;;;;5084479;28;19918;-56
2022/09/04 00:51:29;;;;;;;;;;;;;;;;;;5084670;28;19923;-55
2022/09/04 00:53:54;;;;;;;;;;;;;;;;;;5085697;28;20249;-55
2022/09/04 00:56:20;;;;;;;;;;;;;;;;;;5084182;28;19977;-53
2022/09/04 00:58:45;;;;;;;;;;;;;;;;;;5064584;28;19942;-56
2022/09/04 01:01:11;;;;;;;;;;;;;;;;;;5083004;28;19959;-55
2022/09/04 01:03:36;;;;;;;;;;;;;;;;;;5085593;28;19923;-56
2022/09/04 01:06:02;;;;;;;;;;;;;;;;;;5085027;28;19916;-56
2022/09/04 01:08:28;;;;;;;;;;;;;;;;;;5083131;28;20392;-56
2022/09/04 01:10:53;;;;;;;;;;;;;;;;;;5085827;28;19916;-56
2022/09/04 01:13:18;;;;;;;;;;;;;;;;;;5084331;28;19976;-54
2022/09/04 01:15:44;;;;;;;;;;;;;;;;;;5071128;28;19916;-54
2022/09/04 01:18:11;;;;;;;;;;;;;;;;;;5083848;28;20398;-53
2022/09/04 01:20:36;;;;;;;;;;;;;;;;;;5084874;28;20031;-54
2022/09/04 01:23:01;;;;;;;;;;;;;;;;;;5084395;28;19916;-58
2022/09/04 01:25:29;;;;;;;;;;;;;;;;;;5084259;28;19916;-55
2022/09/04 01:27:54;;;;;;;;;;;;;;;;;;5083589;28;19916;-52
2022/09/04 01:30:20;;;;;;;;;;;;;;;;;;5084529;28;20683;-56
2022/09/04 01:32:45;;;;;;;;;;;;;;;;;;5085249;28;19923;-52
2022/09/04 01:35:13;;;;;;;;;;;;;;;;;;5084356;28;19916;-56
2022/09/04 01:37:40;;;;;;;;;;;;;;;;;;5084763;28;19926;-55
2022/09/04 01:40:05;;;;;;;;;;;;;;;;;;5084627;28;19920;-55
2022/09/04 01:42:30;;;;;;;;;;;;;;;;;;5082747;28;20390;-53
2022/09/04 01:44:56;;;;;;;;;;;;;;;;;;5082808;28;20032;-56
2022/09/04 01:47:21;;;;;;;;;;;;;;;;;;5084191;28;19920;-55
2022/09/04 01:49:46;;;;;;;;;;;;;;;;;;5066909;28;19916;-53
2022/09/04 01:52:11;;;;;;;;;;;;;;;;;;5084457;28;19916;-51
2022/09/04 01:54:36;;;;;;;;;;;;;;;;;;5083445;28;19920;-55
2022/09/04 01:57:02;;;;;;;;;;;;;;;;;;5084414;28;20050;-55
2022/09/04 01:59:27;;;;;;;;;;;;;;;;;;5083107;28;20399;-54
2022/09/04 02:01:53;;;;;;;;;;;;;;;;;;5082684;28;20399;-55
2022/09/04 02:04:19;;;;;;;;;;;;;;;;;;5084581;28;20569;-55
2022/09/04 02:06:45;;;;;;;;;;;;;;;;;;5068504;28;19915;-55
2022/09/04 02:09:10;;;;;;;;;;;;;;;;;;5082351;28;19916;-56
2022/09/04 02:11:36;;;;;;;;;;;;;;;;;;5065964;28;19919;-54
2022/09/04 02:14:08;;;;;;;;;;;;;;;;;;5085099;28;19916;-55
2022/09/04 02:16:33;;;;;;;;;;;;;;;;;;5083593;28;19924;-55
2022/09/04 02:18:59;;;;;;;;;;;;;;;;;;5084595;28;19920;-55
2022/09/04 02:21:24;;;;;;;;;;;;;;;;;;5083831;28;19947;-57
2022/09/04 02:23:50;;;;;;;;;;;;;;;;;;5067931;28;19920;-52
2022/09/04 02:26:16;;;;;;;;;;;;;;;;;;5084445;28;20604;-51
2022/09/04 02:28:41;;;;;;;;;;;;;;;;;;5067010;28;19916;-54
2022/09/04 02:31:06;;;;;;;;;;;;;;;;;;5082944;28;19921;-54
2022/09/04 02:33:31;;;;;;;;;;;;;;;;;;5065220;28;19916;-53
2022/09/04 02:35:56;;;;;;;;;;;;;;;;;;5083620;28;20038;-53
2022/09/04 02:38:22;;;;;;;;;;;;;;;;;;5084027;28;20422;-51
2022/09/04 02:40:47;;;;;;;;;;;;;;;;;;5086325;28;19916;-53
2022/09/04 02:43:12;;;;;;;;;;;;;;;;;;5086448;28;19963;-54
2022/09/04 02:45:37;;;;;;;;;;;;;;;;;;5087415;28;19920;-51
2022/09/04 02:48:02;;;;;;;;;;;;;;;;;;5087018;28;20304;-55
2022/09/04 02:50:28;;;;;;;;;;;;;;;;;;5087905;28;20008;-53
2022/09/04 02:52:54;;;;;;;;;;;;;;;;;;5088023;28;20017;-55
2022/09/04 02:55:19;;;;;;;;;;;;;;;;;;5087290;28;20287;-54
2022/09/04 02:57:46;;;;;;;;;;;;;;;;;;5086594;28;20580;-55
2022/09/04 03:00:16;;;;;;;;;;;;;;;;;;5086948;28;19927;-54
2022/09/04 03:02:41;;;;;;;;;;;;;;;;;;5086867;28;19916;-55
2022/09/04 03:05:06;;;;;;;;;;;;;;;;;;5087397;28;20036;-54
2022/09/04 03:07:32;;;;;;;;;;;;;;;;;;5085601;28;19956;-55
2022/09/04 03:09:57;;;;;;;;;;;;;;;;;;5082749;28;20300;-54
2022/09/04 03:12:25;;;;;;;;;;;;;;;;;;5088273;28;19927;-52
2022/09/04 03:14:51;;;;;;;;;;;;;;;;;;5069302;28;20184;-51
2022/09/04 03:17:16;;;;;;;;;;;;;;;;;;5085930;28;20735;-54
2022/09/04 03:19:41;;;;;;;;;;;;;;;;;;5087004;28;19920;-54
2022/09/04 03:22:07;;;;;;;;;;;;;;;;;;5086629;28;20007;-53
2022/09/04 03:24:32;;;;;;;;;;;;;;;;;;5085911;28;19912;-57
2022/09/04 03:26:57;;;;;;;;;;;;;;;;;;5070280;28;20020;-52
2022/09/04 03:29:23;;;;;;;;;;;;;;;;;;5087930;28;19916;-54
2022/09/04 03:31:48;;;;;;;;;;;;;;;;;;5086696;28;19999;-56
2022/09/04 03:34:13;;;;;;;;;;;;;;;;;;5066332;28;19972;-52
2022/09/04 03:36:39;;;;;;;;;;;;;;;;;;5087025;28;20022;-54
2022/09/04 03:39:04;;;;;;;;;;;;;;;;;;5086456;28;19920;-54
2022/09/04 03:41:29;;;;;;;;;;;;;;;;;;5073223;28;19927;-53
2022/09/04 03:43:54;;;;;;;;;;;;;;;;;;5073549;28;19916;-56
2022/09/04 03:46:20;;;;;;;;;;;;;;;;;;5086847;28;19935;-53
2022/09/04 03:48:45;;;;;;;;;;;;;;;;;;5085388;28;19916;-56
2022/09/04 03:51:11;;;;;;;;;;;;;;;;;;5085157;28;19923;-53
2022/09/04 03:53:36;;;;;;;;;;;;;;;;;;5086420;28;19968;-50
2022/09/04 03:56:01;;;;;;;;;;;;;;;;;;5070662;28;19920;-54
2022/09/04 03:58:26;;;;;;;;;;;;;;;;;;5086619;28;19920;-56
2022/09/04 04:00:55;;;;;;;;;;;;;;;;;;5085871;28;19960;-50
2022/09/04 04:03:20;;;;;;;;;;;;;;;;;;5085979;28;19994;-53
2022/09/04 04:05:46;;;;;;;;;;;;;;;;;;5086783;28;20047;-54
2022/09/04 04:08:11;;;;;;;;;;;;;;;;;;5066407;28;20575;-57
2022/09/04 04:10:38;;;;;;;;;;;;;;;;;;5085383;28;19913;-56
2022/09/04 04:13:03;;;;;;;;;;;;;;;;;;5086757;28;19920;-53
2022/09/04 04:15:28;;;;;;;;;;;;;;;;;;5085668;28;19974;-55
2022/09/04 04:17:53;;;;;;;;;;;;;;;;;;5086300;28;20347;-53
2022/09/04 04:20:21;;;;;;;;;;;;;;;;;;5086361;28;19970;-53
2022/09/04 04:22:46;;;;;;;;;;;;;;;;;;5086330;28;19920;-52
2022/09/04 04:25:11;;;;;;;;;;;;;;;;;;5084300;28;19949;-55
2022/09/04 04:27:36;;;;;;;;;;;;;;;;;;5085404;28;19966;-53
2022/09/04 04:30:02;;;;;;;;;;;;;;;;;;5085323;28;20350;-58
2022/09/04 04:32:27;;;;;;;;;;;;;;;;;;5083448;28;20672;-55
2022/09/04 04:34:52;;;;;;;;;;;;;;;;;;5066729;28;19916;-54
2022/09/04 04:37:18;;;;;;;;;;;;;;;;;;5084568;28;19927;-55
2022/09/04 04:39:43;;;;;;;;;;;;;;;;;;5067325;28;20413;-56
2022/09/04 04:42:08;;;;;;;;;;;;;;;;;;5084537;28;19927;-54
2022/09/04 04:47:17;;;;;;;;;;;;;;;;;;5084291;28;19916;-51
2022/09/04 04:49:43;;;;;;;;;;;;;;;;;;5085686;28;19923;-53
2022/09/04 04:52:08;;;;;;;;;;;;;;;;;;5085679;28;19920;-55
2022/09/04 04:54:34;;;;;;;;;;;;;;;;;;5084730;28;19916;-51
2022/09/04 04:57:00;;;;;;;;;;;;;;;;;;5084827;28;20007;-50
2022/09/04 04:59:26;;;;;;;;;;;;;;;;;;5066765;28;19927;-54
2022/09/04 05:01:51;;;;;;;;;;;;;;;;;;5085350;28;19916;-52
2022/09/04 05:04:16;;;;;;;;;;;;;;;;;;5084545;28;19935;-55
2022/09/04 05:06:41;;;;;;;;;;;;;;;;;;5084646;28;19916;-52
2022/09/04 05:09:07;;;;;;;;;;;;;;;;;;5082819;28;19970;-50
2022/09/04 05:11:32;;;;;;;;;;;;;;;;;;5083192;28;19920;-55
2022/09/04 05:13:57;;;;;;;;;;;;;;;;;;5086383;28;20257;-52
2022/09/04 05:16:22;;;;;;;;;;;;;;;;;;5066619;28;20495;-54
2022/09/04 05:18:47;;;;;;;;;;;;;;;;;;5084375;28;20639;-56
2022/09/04 05:21:13;;;;;;;;;;;;;;;;;;5084984;28;19924;-52
2022/09/04 05:23:38;;;;;;;;;;;;;;;;;;5084009;28;20385;-55
2022/09/04 05:26:03;;;;;;;;;;;;;;;;;;5084068;28;19916;-52
2022/09/04 05:28:28;;;;;;;;;;;;;;;;;;5083137;28;20468;-52
2022/09/04 05:30:53;;;;;;;;;;;;;;;;;;5085030;28;19939;-53
2022/09/04 05:33:19;;;;;;;;;;;;;;;;;;5083596;28;20369;-53
2022/09/04 05:35:44;;;;;;;;;;;;;;;;;;5084447;28;19938;-57
2022/09/04 05:38:09;;;;;;;;;;;;;;;;;;5082878;28;19927;-55
2022/09/04 05:40:34;;;;;;;;;;;;;;;;;;5068726;28;19916;-54
2022/09/04 05:42:59;;;;;;;;;;;;;;;;;;5069208;28;19993;-53
2022/09/04 05:45:25;;;;;;;;;;;;;;;;;;5082959;28;19951;-53
2022/09/04 05:47:50;;;;;;;;;;;;;;;;;;5084620;28;19920;-54
2022/09/04 05:50:15;;;;;;;;;;;;;;;;;;5084308;28;20003;-56
2022/09/04 05:52:40;;;;;;;;;;;;;;;;;;5066283;28;19939;-53
2022/09/04 05:55:06;;;;;;;;;;;;;;;;;;5083088;28;20015;-54
2022/09/04 05:57:31;;;;;;;;;;;;;;;;;;5066357;28;19920;-54
2022/09/04 05:59:56;;;;;;;;;;;;;;;;;;5084809;28;19920;-54
2022/09/04 06:02:22;;;;;;;;;;;;;;;;;;5065734;28;19919;-55
2022/09/04 06:04:47;;;;;;;;;;;;;;;;;;5084603;28;19930;-54
2022/09/04 06:07:12;;;;;;;;;;;;;;;;;;5082458;28;20470;-50
2022/09/04 06:09:37;;;;;;;;;;;;;;;;;;5081572;28;19916;-52
2022/09/04 06:12:02;;;;;;;;;;;;;;;;;;5084240;28;19920;-56
2022/09/04 06:14:28;;;;;;;;;;;;;;;;;;5069871;28;19931;-56
2022/09/04 06:16:53;;;;;;;;;;;;;;;;;;5083234;28;19920;-54
2022/09/04 06:19:18;;;;;;;;;;;;;;;;;;5082744;28;19921;-56
2022/09/04 06:21:43;;;;;;;;;;;;;;;;;;5083842;28;20001;-52
2022/09/04 06:24:08;;;;;;;;;;;;;;;;;;5083876;28;19974;-56
2022/09/04 06:26:34;;;;;;;;;;;;;;;;;;5082570;28;20007;-56
2022/09/04 06:29:00;;;;;;;;;;;;;;;;;;5084321;28;20394;-55
2022/09/04 06:31:25;;;;;;;;;;;;;;;;;;5083913;28;19916;-52
2022/09/04 06:33:50;;;;;;;;;;;;;;;;;;5082639;28;19916;-56
2022/09/04 06:36:15;;;;;;;;;;;;;;;;;;5080086;28;19932;-55
2022/09/04 06:38:40;;;;;;;;;;;;;;;;;;5083957;28;19920;-55
2022/09/04 06:41:07;;;;;;;;;;;;;;;;;;5084013;28;20342;-55
2022/09/04 06:43:33;;;;;;;;;;;;;;;;;;5083995;28;19916;-56
2022/09/04 06:45:58;;;;;;;;;;;;;;;;;;5085532;28;19931;-56
2022/09/04 06:48:23;;;;;;;;;;;;;;;;;;5066884;28;19923;-55
2022/09/04 06:50:48;;;;;;;;;;;;;;;;;;5065122;28;19923;-53
2022/09/04 06:53:14;;;;;;;;;;;;;;;;;;5082731;28;20601;-55
2022/09/04 06:55:41;;;;;;;;;;;;;;;;;;5083781;28;19916;-55
2022/09/04 06:58:06;;;;;;;;;;;;;;;;;;5082383;28;20001;-55
2022/09/04 07:00:31;;;;;;;;;;;;;;;;;;5083035;28;19916;-57
2022/09/04 07:02:56;;;;;;;;;;;;;;;;;;5082788;28;19920;-54
2022/09/04 07:05:22;;;;;;;;;;;;;;;;;;5083658;28;19916;-55
2022/09/04 07:07:47;;;;;;;;;;;;;;;;;;5082920;28;19916;-56
2022/09/04 07:10:12;;;;;;;;;;;;;;;;;;5082246;28;20003;-56
2022/09/04 07:12:37;;;;;;;;;;;;;;;;;;5082108;28;20349;-59
2022/09/04 07:15:02;;;;;;;;;;;;;;;;;;5065956;28;20479;-56
2022/09/04 07:17:28;;;;;;;;;;;;;;;;;;5082547;28;20030;-53
2022/09/04 07:19:53;;;;;;;;;;;;;;;;;;5080601;28;19927;-52
2022/09/04 07:22:18;;;;;;;;;;;;;;;;;;5082727;28;19916;-55
2022/09/04 07:24:43;;;;;;;;;;;;;;;;;;5084017;28;19982;-56
2022/09/04 07:27:10;;;;;;;;;;;;;;;;;;5084454;28;19916;-56
2022/09/04 07:29:36;;;;;;;;;;;;;;;;;;5086768;28;20392;-56
2022/09/04 07:32:01;;;;;;;;;;;;;;;;;;5086742;28;20003;-56
2022/09/04 07:34:26;;;;;;;;;;;;;;;;;;5085735;28;19917;-55
2022/09/04 07:36:53;;;;;;;;;;;;;;;;;;5086769;28;19920;-54
2022/09/04 07:39:18;;;;;;;;;;;;;;;;;;5071368;28;19978;-58
2022/09/04 07:41:44;;;;;;;;;;;;;;;;;;5086272;28;19916;-56
2022/09/04 07:44:09;;;;;;;;;;;;;;;;;;5068174;28;19916;-55
2022/09/04 07:46:34;;;;;;;;;;;;;;;;;;5085355;28;20014;-57
2022/09/04 07:49:03;;;;;;;;;;;;;;;;;;5087238;28;20019;-55
2022/09/04 07:51:28;;;;;;;;;;;;;;;;;;5087033;28;19916;-52
2022/09/04 07:53:54;;;;;;;;;;;;;;;;;;5086855;28;19916;-54
2022/09/04 07:56:19;;;;;;;;;;;;;;;;;;5085907;28;20057;-55
2022/09/04 07:58:44;;;;;;;;;;;;;;;;;;5078056;28;20086;-56
2022/09/04 08:01:09;;;;;;;;;;;;;;;;;;5068277;28;19916;-57
2022/09/04 08:03:35;;;;;;;;;;;;;;;;;;5087542;28;19923;-57
2022/09/04 08:06:00;;;;;;;;;;;;;;;;;;5086600;28;19920;-56
2022/09/04 08:08:25;;;;;;;;;;;;;;;;;;5067565;28;19912;-55
2022/09/04 08:10:50;;;;;;;;;;;;;;;;;;5067011;28;19984;-57
2022/09/04 08:13:17;;;;;;;;;;;;;;;;;;5072578;28;20288;-55
2022/09/04 08:15:42;;;;;;;;;;;;;;;;;;5087535;28;19955;-54
2022/09/04 08:18:07;;;;;;;;;;;;;;;;;;5070998;28;20145;-56
2022/09/04 08:20:32;;;;;;;;;;;;;;;;;;5085497;28;19916;-57
2022/09/04 08:22:58;;;;;;;;;;;;;;;;;;5082900;28;19920;-56
2022/09/04 08:25:23;;;;;;;;;;;;;;;;;;5083537;28;19979;-55
2022/09/04 08:27:48;;;;;;;;;;;;;;;;;;5078495;28;19948;-51
2022/09/04 08:30:14;;;;;;;;;;;;;;;;;;5068471;28;19951;-56
2022/09/04 08:32:39;;;;;;;;;;;;;;;;;;5082751;28;20314;-59
2022/09/04 08:35:05;;;;;;;;;;;;;;;;;;5084346;28;20358;-57
2022/09/04 08:37:30;;;;;;;;;;;;;;;;;;5083215;28;19930;-57
2022/09/04 08:39:55;;;;;;;;;;;;;;;;;;5083626;28;20372;-57
2022/09/04 08:42:20;;;;;;;;;;;;;;;;;;5083175;28;19916;-56
2022/09/04 08:44:46;;;;;;;;;;;;;;;;;;5068259;28;19922;-57
2022/09/04 08:47:11;;;;;;;;;;;;;;;;;;5083406;28;19916;-57
2022/09/04 08:49:40;;;;;;;;;;;;;;;;;;5083881;28;19969;-57
2022/09/04 08:52:05;;;;;;;;;;;;;;;;;;5066110;28;19916;-56
2022/09/04 08:54:30;;;;;;;;;;;;;;;;;;5083451;28;19920;-57
2022/09/04 08:56:56;;;;;;;;;;;;;;;;;;5083293;28;19923;-56
2022/09/04 08:59:21;;;;;;;;;;;;;;;;;;5065646;28;19924;-56
2022/09/04 09:01:46;;;;;;;;;;;;;;;;;;5084934;28;19916;-56
2022/09/04 09:04:11;;;;;;;;;;;;;;;;;;5076908;28;19964;-57
2022/09/04 09:06:36;;;;;;;;;;;;;;;;;;5082335;28;19916;-58
2022/09/04 09:09:02;;;;;;;;;;;;;;;;;;5083542;28;19923;-58
2022/09/04 09:11:27;;;;;;;;;;;;;;;;;;5083541;28;20003;-57
2022/09/04 09:13:52;;;;;;;;;;;;;;;;;;5064649;28;19915;-57
2022/09/04 09:16:17;;;;;;;;;;;;;;;;;;5082414;28;19959;-58
2022/09/04 09:18:42;;;;;;;;;;;;;;;;;;5083397;28;19920;-56
2022/09/04 09:21:08;;;;;;;;;;;;;;;;;;5083571;28;19969;-57
2022/09/04 09:23:34;;;;;;;;;;;;;;;;;;5082309;28;19923;-58
2022/09/04 09:26:04;;;;;;;;;;;;;;;;;;5081404;28;19946;-57
2022/09/04 09:28:30;;;;;;;;;;;;;;;;;;5082247;28;19916;-56
2022/09/04 09:30:57;;;;;;;;;;;;;;;;;;5065636;28;19917;-56
2022/09/04 09:33:22;;;;;;;;;;;;;;;;;;5082117;28;20781;-58
2022/09/04 09:35:51;;;;;;;;;;;;;;;;;;5081961;28;19912;-57
2022/09/04 09:38:18;;;;;;;;;;;;;;;;;;5067538;28;19924;-57
2022/09/04 09:40:43;;;;;;;;;;;;;;;;;;5083045;28;19966;-58
2022/09/04 09:43:09;;;;;;;;;;;;;;;;;;5081110;28;19920;-55
2022/09/04 09:45:35;;;;;;;;;;;;;;;;;;5082750;28;19965;-61
2022/09/04 09:48:00;;;;;;;;;;;;;;;;;;5082795;28;19915;-56
2022/09/04 09:50:25;;;;;;;;;;;;;;;;;;5081578;28;19916;-57
2022/09/04 09:52:50;;;;;;;;;;;;;;;;;;5083164;28;19916;-57
2022/09/04 09:55:16;;;;;;;;;;;;;;;;;;5082750;28;19986;-57
2022/09/04 09:57:41;;;;;;;;;;;;;;;;;;5081337;28;20385;-57
2022/09/04 10:00:06;;;;;;;;;;;;;;;;;;5082068;28;19931;-55
2022/09/04 10:02:36;;;;;;;;;;;;;;;;;;5074747;28;19951;-57
2022/09/04 10:05:02;;;;;;;;;;;;;;;;;;5063058;28;19928;-58
2022/09/04 10:07:28;;;;;;;;;;;;;;;;;;5081302;28;19916;-56
2022/09/04 10:09:53;;;;;;;;;;;;;;;;;;5080037;28;20019;-55
2022/09/04 10:12:19;;;;;;;;;;;;;;;;;;5058208;28;20377;-57
2022/09/04 10:14:44;;;;;;;;;;;;;;;;;;5063436;28;19920;-57
2022/09/04 10:17:09;;;;;;;;;;;;;;;;;;5082667;28;19971;-56
2022/09/04 10:19:34;;;;;;;;;;;;;;;;;;5064515;28;19965;-56
2022/09/04 10:22:00;;;;;;;;;;;;;;;;;;5081993;28;20002;-57
2022/09/04 10:24:25;;;;;;;;;;;;;;;;;;5081022;28;19916;-57
2022/09/04 10:26:50;;;;;;;;;;;;;;;;;;5080814;28;19955;-57
2022/09/04 10:29:15;;;;;;;;;;;;;;;;;;5081882;28;20071;-58
2022/09/04 10:31:41;;;;;;;;;;;;;;;;;;5080796;28;19927;-56
2022/09/04 10:34:06;;;;;;;;;;;;;;;;;;5080562;28;19916;-56
2022/09/04 10:36:31;;;;;;;;;;;;;;;;;;5082991;28;19927;-57
2022/09/04 10:41:41;;;;;;;;;;;;;;;;;;5064490;28;20398;-55
2022/09/04 10:44:06;;;;;;;;;;;;;;;;;;5082433;28;20446;-57
2022/09/04 10:46:32;;;;;;;;;;;;;;;;;;5081060;28;19974;-57
2022/09/04 10:48:57;;;;;;;;;;;;;;;;;;5083450;28;20049;-57
2022/09/04 10:51:24;;;;;;;;;;;;;;;;;;5082352;28;19968;-57
2022/09/04 10:53:51;;;;;;;;;;;;;;;;;;5082074;28;19975;-57
2022/09/04 10:56:16;;;;;;;;;;;;;;;;;;5082087;28;20733;-57
2022/09/04 10:58:43;;;;;;;;;;;;;;;;;;5082476;28;19920;-56
2022/09/04 11:01:09;;;;;;;;;;;;;;;;;;5082033;28;19916;-57
2022/09/04 11:03:34;;;;;;;;;;;;;;;;;;5086222;28;19967;-55
2022/09/04 11:06:01;;;;;;;;;;;;;;;;;;5067426;28;19977;-55
2022/09/04 11:08:26;;;;;;;;;;;;;;;;;;5082440;28;19964;-57
2022/09/04 11:10:51;;;;;;;;;;;;;;;;;;5085880;28;19920;-57
2022/09/04 11:13:16;;;;;;;;;;;;;;;;;;5085862;28;19927;-58
2022/09/04 11:15:41;;;;;;;;;;;;;;;;;;5083570;28;20029;-58
2022/09/04 11:18:07;;;;;;;;;;;;;;;;;;5085623;28;19927;-57
2022/09/04 11:20:32;;;;;;;;;;;;;;;;;;5085416;28;20296;-57
2022/09/04 11:22:57;;;;;;;;;;;;;;;;;;5066685;28;19948;-57
2022/09/04 11:25:23;;;;;;;;;;;;;;;;;;5085228;28;19920;-58
2022/09/04 11:27:48;;;;;;;;;;;;;;;;;;5085108;28;19912;-58
2022/09/04 11:30:14;;;;;;;;;;;;;;;;;;5084019;28;20819;-57
2022/09/04 11:32:39;;;;;;;;;;;;;;;;;;5085748;28;20867;-59
2022/09/04 11:35:05;;;;;;;;;;;;;;;;;;5084153;28;19916;-58
2022/09/04 11:37:31;;;;;;;;;;;;;;;;;;5084327;28;19920;-59
2022/09/04 11:39:56;;;;;;;;;;;;;;;;;;5065659;28;19986;-57
2022/09/04 11:42:22;;;;;;;;;;;;;;;;;;5082087;28;19999;-57
2022/09/04 11:44:47;;;;;;;;;;;;;;;;;;5065416;28;19943;-58
2022/09/04 11:47:12;;;;;;;;;;;;;;;;;;5082971;28;20563;-58
2022/09/04 11:49:39;;;;;;;;;;;;;;;;;;5083756;28;20057;-62
2022/09/04 11:52:04;;;;;;;;;;;;;;;;;;5084106;28;19920;-58
2022/09/04 11:54:30;;;;;;;;;;;;;;;;;;5083589;28;19916;-57
2022/09/04 11:56:55;;;;;;;;;;;;;;;;;;5083667;28;19942;-58
2022/09/04 11:59:20;;;;;;;;;;;;;;;;;;5082896;28;19928;-59
2022/09/04 12:01:45;;;;;;;;;;;;;;;;;;5084913;28;19955;-58
2022/09/04 12:04:10;;;;;;;;;;;;;;;;;;5083977;28;19920;-58
2022/09/04 12:06:36;;;;;;;;;;;;;;;;;;5082277;28;19939;-58
2022/09/04 12:09:01;;;;;;;;;;;;;;;;;;5082960;28;19928;-59
2022/09/04 12:11:30;;;;;;;;;;;;;;;;;;5082838;28;20292;-59
2022/09/04 12:13:56;;;;;;;;;;;;;;;;;;5082963;28;19916;-58
2022/09/04 12:16:22;;;;;;;;;;;;;;;;;;5081864;28;19930;-58
2022/09/04 12:18:53;;;;;;;;;;;;;;;;;;5082999;28;19920;-58
2022/09/04 12:21:18;;;;;;;;;;;;;;;;;;5083564;28;19912;-58
2022/09/04 12:23:43;;;;;;;;;;;;;;;;;;5082534;28;19916;-58
2022/09/04 12:26:08;;;;;;;;;;;;;;;;;;5082358;28;20391;-58
2022/09/04 12:28:36;;;;;;;;;;;;;;;;;;5065464;28;20448;-58
2022/09/04 12:31:01;;;;;;;;;;;;;;;;;;5082608;28;19931;-58
2022/09/04 12:33:27;;;;;;;;;;;;;;;;;;5082866;28;20324;-59
2022/09/04 12:35:53;;;;;;;;;;;;;;;;;;5062934;28;19954;-58
2022/09/04 12:38:18;;;;;;;;;;;;;;;;;;5082980;28;19927;-58
2022/09/04 12:40:43;;;;;;;;;;;;;;;;;;5084084;28;19923;-58
2022/09/04 12:43:15;;;;;;;;;;;;;;;;;;5083203;28;19978;-59
2022/09/04 12:45:40;;;;;;;;;;;;;;;;;;5080439;28;19923;-59
2022/09/04 12:48:08;;;;;;;;;;;;;;;;;;5078080;28;19923;-59
2022/09/04 12:50:33;;;;;;;;;;;;;;;;;;5078360;28;19924;-59
2022/09/04 12:52:58;;;;;;;;;;;;;;;;;;5065338;28;19920;-58
2022/09/04 12:55:24;;;;;;;;;;;;;;;;;;5066001;28;19924;-60
2022/09/04 12:57:51;;;;;;;;;;;;;;;;;;5082335;28;20788;-59
2022/09/04 13:00:16;;;;;;;;;;;;;;;;;;5082936;28;19928;-57
2022/09/04 13:02:43;;;;;;;;;;;;;;;;;;5084415;28;19927;-58
2022/09/04 13:05:08;;;;;;;;;;;;;;;;;;5085804;28;20043;-58
2022/09/04 13:07:34;;;;;;;;;;;;;;;;;;5086565;28;20014;-59
2022/09/04 13:09:59;;;;;;;;;;;;;;;;;;5086399;28;19938;-58
2022/09/04 13:12:24;;;;;;;;;;;;;;;;;;5071579;28;20593;-58
2022/09/04 13:14:49;;;;;;;;;;;;;;;;;;5087021;28;19950;-59
2022/09/04 13:17:16;;;;;;;;;;;;;;;;;;5085996;28;20075;-59
2022/09/04 13:19:45;;;;;;;;;;;;;;;;;;5082369;28;20369;-59
2022/09/04 13:22:10;;;;;;;;;;;;;;;;;;5084184;28;19923;-59
2022/09/04 13:24:35;;;;;;;;;;;;;;;;;;5083419;28;20391;-58
2022/09/04 13:27:01;;;;;;;;;;;;;;;;;;5085665;28;19957;-58
2022/09/04 13:29:26;;;;;;;;;;;;;;;;;;5085952;28;20380;-59
2022/09/04 13:31:51;;;;;;;;;;;;;;;;;;5086640;28;19927;-59
2022/09/04 13:34:17;;;;;;;;;;;;;;;;;;5084905;28;19952;-58
2022/09/04 13:36:42;;;;;;;;;;;;;;;;;;5086827;28;19993;-59
2022/09/04 13:39:09;;;;;;;;;;;;;;;;;;5087544;28;19965;-58
2022/09/04 13:41:34;;;;;;;;;;;;;;;;;;5087097;28;20015;-59
2022/09/04 13:43:59;;;;;;;;;;;;;;;;;;5086878;28;20014;-59
2022/09/04 13:46:28;;;;;;;;;;;;;;;;;;5084697;28;19980;-58
2022/09/04 13:48:54;;;;;;;;;;;;;;;;;;5088022;28;19969;-58
2022/09/04 13:51:21;;;;;;;;;;;;;;;;;;5086448;28;19948;-58
2022/09/04 13:53:47;;;;;;;;;;;;;;;;;;5087985;28;19923;-58
2022/09/04 13:56:12;;;;;;;;;;;;;;;;;;5086669;28;19916;-58
2022/09/04 13:58:37;;;;;;;;;;;;;;;;;;5087318;28;20329;-59
2022/09/04 14:01:05;;;;;;;;;;;;;;;;;;5071209;28;19980;-59
2022/09/04 14:03:31;;;;;;;;;;;;;;;;;;5087161;28;20045;-58
2022/09/04 14:05:56;;;;;;;;;;;;;;;;;;5087069;28;20019;-58
2022/09/04 14:08:22;;;;;;;;;;;;;;;;;;5087410;28;20049;-58
2022/09/04 14:10:47;;;;;;;;;;;;;;;;;;5070555;28;19916;-59
2022/09/04 14:13:12;;;;;;;;;;;;;;;;;;5087298;28;19920;-60
2022/09/04 14:15:39;;;;;;;;;;;;;;;;;;5086152;28;19916;-59
2022/09/04 14:18:04;;;;;;;;;;;;;;;;;;5087421;28;19998;-59
2022/09/04 14:20:29;;;;;;;;;;;;;;;;;;5085593;28;20018;-59
2022/09/04 14:22:54;;;;;;;;;;;;;;;;;;5086762;28;19974;-60
2022/09/04 14:25:19;;;;;;;;;;;;;;;;;;5086712;28;19912;-59
2022/09/04 14:27:45;;;;;;;;;;;;;;;;;;5086908;28;19916;-59
2022/09/04 14:30:10;;;;;;;;;;;;;;;;;;5085136;28;19920;-59
2022/09/04 14:32:39;;;;;;;;;;;;;;;;;;5087102;28;19955;-60
2022/09/04 14:35:09;;;;;;;;;;;;;;;;;;5086689;28;19954;-59
2022/09/04 14:37:34;;;;;;;;;;;;;;;;;;5091408;28;19972;-60
2022/09/04 14:40:01;;;;;;;;;;;;;;;;;;5087517;28;20448;-59
2022/09/04 14:42:27;;;;;;;;;;;;;;;;;;5091166;28;19988;-59
2022/09/04 14:44:52;;;;;;;;;;;;;;;;;;5089852;28;20380;-59
2022/09/04 14:47:19;;;;;;;;;;;;;;;;;;5089432;28;19916;-60
2022/09/04 14:49:44;;;;;;;;;;;;;;;;;;5089293;28;19913;-60
2022/09/04 14:52:10;;;;;;;;;;;;;;;;;;5090871;28;20003;-59
2022/09/04 14:54:36;;;;;;;;;;;;;;;;;;5090199;28;19923;-59
2022/09/04 14:57:01;;;;;;;;;;;;;;;;;;5089980;28;19920;-59
2022/09/04 14:59:26;;;;;;;;;;;;;;;;;;5089003;28;19923;-59
2022/09/04 15:01:51;;;;;;;;;;;;;;;;;;5090795;28;19920;-59
2022/09/04 15:04:17;;;;;;;;;;;;;;;;;;5091200;28;19960;-58
2022/09/04 15:06:43;;;;;;;;;;;;;;;;;;5089852;28;19927;-59
2022/09/04 15:09:08;;;;;;;;;;;;;;;;;;5089869;28;20383;-58
2022/09/04 15:11:33;;;;;;;;;;;;;;;;;;5089175;28;19916;-58
2022/09/04 15:14:01;;;;;;;;;;;;;;;;;;5089490;28;19921;-58
2022/09/04 15:16:27;;;;;;;;;;;;;;;;;;5089811;28;19936;-58
2022/09/04 15:18:52;;;;;;;;;;;;;;;;;;5089240;28;19924;-58
2022/09/04 15:21:17;;;;;;;;;;;;;;;;;;5087804;28;19920;-58
2022/09/04 15:23:42;;;;;;;;;;;;;;;;;;5086276;28;20003;-58
2022/09/04 15:26:08;;;;;;;;;;;;;;;;;;5086738;28;19923;-58
2022/09/04 15:28:37;;;;;;;;;;;;;;;;;;5086197;28;19916;-58
2022/09/04 15:31:02;;;;;;;;;;;;;;;;;;5086640;28;19924;-59
2022/09/04 15:33:27;;;;;;;;;;;;;;;;;;5087259;28;19969;-59
2022/09/04 15:35:52;;;;;;;;;;;;;;;;;;5086425;28;19916;-59
2022/09/04 15:38:19;;;;;;;;;;;;;;;;;;5086974;28;19920;-58
2022/09/04 15:40:45;;;;;;;;;;;;;;;;;;5086580;28;20392;-59
2022/09/04 15:43:10;;;;;;;;;;;;;;;;;;5085447;28;19954;-59
2022/09/04 15:45:35;;;;;;;;;;;;;;;;;;5085762;28;19920;-59
2022/09/04 15:48:00;;;;;;;;;;;;;;;;;;5085902;28;19930;-58
2022/09/04 15:50:26;;;;;;;;;;;;;;;;;;5085959;28;19916;-59
2022/09/04 15:52:51;;;;;;;;;;;;;;;;;;5087236;28;19992;-58
2022/09/04 15:55:16;;;;;;;;;;;;;;;;;;5071159;28;19946;-58
2022/09/04 15:57:42;;;;;;;;;;;;;;;;;;5070047;28;20847;-58
2022/09/04 16:00:08;;;;;;;;;;;;;;;;;;5084574;28;19926;-59
2022/09/04 16:02:36;;;;;;;;;;;;;;;;;;5087412;28;19912;-58
2022/09/04 16:05:02;;;;;;;;;;;;;;;;;;5087208;28;19927;-59
2022/09/04 16:07:33;;;;;;;;;;;;;;;;;;5085210;28;20360;-58
2022/09/04 16:09:58;;;;;;;;;;;;;;;;;;5084713;28;20025;-58
2022/09/04 16:12:23;;;;;;;;;;;;;;;;;;5065388;28;20469;-59
2022/09/04 16:14:48;;;;;;;;;;;;;;;;;;5067905;28;19926;-58
2022/09/04 16:17:13;;;;;;;;;;;;;;;;;;5086121;28;19923;-59
2022/09/04 16:19:39;;;;;;;;;;;;;;;;;;5084368;28;20382;-59
2022/09/04 16:22:04;;;;;;;;;;;;;;;;;;5086019;28;19978;-59
2022/09/04 16:24:29;;;;;;;;;;;;;;;;;;5086177;28;20007;-58
2022/09/04 16:26:54;;;;;;;;;;;;;;;;;;5086043;28;19916;-58
2022/09/04 16:29:20;;;;;;;;;;;;;;;;;;5070416;28;20009;-59
2022/09/04 16:31:45;;;;;;;;;;;;;;;;;;5086489;28;19912;-58
2022/09/04 16:34:10;;;;;;;;;;;;;;;;;;5065949;28;19916;-60
2022/09/04 16:36:36;;;;;;;;;;;;;;;;;;5086260;28;19993;-57
2022/09/04 16:39:02;;;;;;;;;;;;;;;;;;5085697;28;20516;-60